CheckWX is a tool to help pilots better visualize weather data.  It is not intended as a substitute for an official pre-flight weather briefing.

20:48:37 UTC

KMDQ METAR
Huntsville Executive Tom Sharp Jr Field Airport
Huntsville, Alabama, USA
Current

34 mins ago

KMDQ 182015Z AUTO 34014KT 10SM CLR 07/00 A3029 RMK A02 P0001 T00740000
Observed
Feb-18 @ 20:15 UTC
Wind
  • 340° at 14 KTS
Visibility
10 SM
Flight Rules
VFR
Cloud Levels
  • Clear skies
Temperature
C / 45°F
Dewpoint
C / 32°F
Humidity
61%
Altimeter
30.29" Hg
Pressure
1025.72 hPa
Current Rain
0.01"
Previous

1 hour ago

KMDQ 181935Z AUTO 36008KT 340V040 10SM CLR 08/00 A3029 RMK A02 P0001 T00761000
Observed
Feb-18 @ 19:35 UTC
Wind
  • 360° at 8 KTS
Visibility
10 SM
Flight Rules
VFR
Cloud Levels
  • Clear skies
Temperature
C / 46°F
Dewpoint
C / 32°F
Humidity
57%
Altimeter
30.29" Hg
Pressure
1025.72 hPa
Current Rain
0.01"
Previous

2 hours ago

KMDQ 181915Z AUTO 35013KT 10SM CLR 08/00 A3029 RMK A02 P0001 T00760001
Observed
Feb-18 @ 19:15 UTC
Wind
  • 350° at 13 KTS
Visibility
10 SM
Flight Rules
VFR
Cloud Levels
  • Clear skies
Temperature
C / 46°F
Dewpoint
C / 32°F
Humidity
57%
Altimeter
30.29" Hg
Pressure
1025.72 hPa
Current Rain
0.01"